createdAt,value
2023-11-23T00:00:49.699Z,17.35
2023-11-23T00:03:16.861Z,16.47
2023-11-23T00:05:43.828Z,16.51
2023-11-23T00:08:10.774Z,16.95
2023-11-23T00:10:37.745Z,16.78
2023-11-23T00:13:04.721Z,17.62
2023-11-23T00:15:31.824Z,17.32
2023-11-23T00:17:59.301Z,17.84
2023-11-23T00:20:26.272Z,17.23
2023-11-23T00:22:53.374Z,17.34
2023-11-23T00:25:20.320Z,17.30
2023-11-23T00:27:47.347Z,18.11
2023-11-23T00:30:14.889Z,16.77
2023-11-23T00:32:42.052Z,17.60
2023-11-23T00:35:09.601Z,17.52
2023-11-23T00:37:36.673Z,17.38
2023-11-23T00:40:04.402Z,17.00
2023-11-23T00:42:31.455Z,17.50
2023-11-23T00:44:58.494Z,17.78
2023-11-23T00:47:25.510Z,17.00
2023-11-23T00:49:52.492Z,17.43
2023-11-23T00:52:19.454Z,17.73
2023-11-23T00:54:48.735Z,17.79
2023-11-23T00:57:15.734Z,17.79
2023-11-23T00:59:42.835Z,19.02
2023-11-23T01:02:10.037Z,18.46
2023-11-23T01:04:38.974Z,19.42
2023-11-23T01:07:06.127Z,19.10
2023-11-23T01:09:33.135Z,19.36
2023-11-23T01:12:00.333Z,19.93
2023-11-23T01:14:27.320Z,19.20
2023-11-23T01:16:54.396Z,19.92
2023-11-23T01:19:21.447Z,21.11
2023-11-23T01:21:48.398Z,22.05
2023-11-23T01:24:15.376Z,21.68
2023-11-23T01:26:42.389Z,22.35
2023-11-23T01:29:10.479Z,22.33
2023-11-23T01:31:37.479Z,24.07
2023-11-23T01:34:05.203Z,23.24
2023-11-23T01:36:32.259Z,22.88
2023-11-23T01:38:59.232Z,22.75
2023-11-23T01:41:26.245Z,22.56
2023-11-23T01:43:53.292Z,22.30
2023-11-23T01:46:20.279Z,23.34
2023-11-23T01:48:49.517Z,23.88
2023-11-23T01:51:18.803Z,23.41
2023-11-23T01:53:46.028Z,25.15
2023-11-23T01:56:13.664Z,22.50
2023-11-23T01:58:40.684Z,24.46
2023-11-23T02:01:08.243Z,24.20
2023-11-23T02:03:35.613Z,25.25
2023-11-23T02:06:02.775Z,26.78
2023-11-23T02:08:29.785Z,28.19
2023-11-23T02:10:57.908Z,29.16
2023-11-23T02:13:25.973Z,27.91
2023-11-23T02:15:53.641Z,27.73
2023-11-23T02:18:20.900Z,27.13
2023-11-23T02:20:48.169Z,28.19
2023-11-23T02:23:15.211Z,28.53
2023-11-23T02:25:42.200Z,27.33
2023-11-23T02:28:09.731Z,29.06
2023-11-23T02:30:37.088Z,27.07
2023-11-23T02:33:05.420Z,28.27
2023-11-23T02:35:32.605Z,27.54
2023-11-23T02:37:59.624Z,27.38
2023-11-23T02:40:26.891Z,27.64
2023-11-23T02:42:53.964Z,27.20
2023-11-23T02:45:21.015Z,28.57
2023-11-23T02:47:48.071Z,27.47
2023-11-23T02:50:15.072Z,28.08
2023-11-23T02:52:42.083Z,28.11
2023-11-23T02:55:10.586Z,28.16
2023-11-23T02:57:37.472Z,28.20
2023-11-23T03:00:05.753Z,28.25
2023-11-23T03:02:32.895Z,28.84
2023-11-23T03:04:59.960Z,29.24
2023-11-23T03:07:26.914Z,28.51
2023-11-23T03:09:53.920Z,29.11
2023-11-23T03:12:20.954Z,28.50
2023-11-23T03:14:48.019Z,29.51
2023-11-23T03:17:15.280Z,29.47
2023-11-23T03:19:42.202Z,30.93
2023-11-23T03:22:09.473Z,32.42
2023-11-23T03:24:36.566Z,32.12
2023-11-23T03:27:03.781Z,32.69
2023-11-23T03:29:30.782Z,32.75
2023-11-23T03:31:57.826Z,31.94
2023-11-23T03:34:25.305Z,32.31
2023-11-23T03:36:52.291Z,32.19
2023-11-23T03:39:20.022Z,31.21
2023-11-23T03:41:48.929Z,31.35
2023-11-23T03:44:15.983Z,33.77
2023-11-23T03:46:43.294Z,32.00
2023-11-23T03:49:10.418Z,32.56
2023-11-23T03:51:37.995Z,32.39
2023-11-23T03:54:05.472Z,31.17
2023-11-23T03:56:32.760Z,33.00
2023-11-23T03:58:59.705Z,31.72
2023-11-23T04:01:26.698Z,32.48
2023-11-23T04:03:53.856Z,32.51
2023-11-23T04:06:20.951Z,33.41
2023-11-23T04:08:49.392Z,34.97
2023-11-23T04:11:16.639Z,34.49
2023-11-23T04:13:43.729Z,34.29
2023-11-23T04:16:10.797Z,33.96
2023-11-23T04:18:37.895Z,34.43
2023-11-23T04:21:05.515Z,35.10
2023-11-23T04:23:32.755Z,35.96
2023-11-23T04:25:59.788Z,35.35
2023-11-23T04:28:27.383Z,35.75
2023-11-23T04:30:55.102Z,37.26
2023-11-23T04:33:24.634Z,37.57
2023-11-23T04:35:51.833Z,38.63
2023-11-23T04:38:18.793Z,39.92
2023-11-23T04:40:45.754Z,39.80
2023-11-23T04:43:13.640Z,39.45
2023-11-23T04:45:41.199Z,40.51
2023-11-23T04:48:08.547Z,40.02
2023-11-23T04:50:38.244Z,40.85
2023-11-23T04:53:05.277Z,38.78
2023-11-23T04:55:33.594Z,39.90
2023-11-23T04:58:00.555Z,38.80
2023-11-23T05:00:27.639Z,41.06
2023-11-23T05:02:56.105Z,41.39
2023-11-23T05:05:23.198Z,38.87
2023-11-23T05:07:50.464Z,38.17
2023-11-23T05:10:18.780Z,38.34
2023-11-23T05:12:45.749Z,38.23
2023-11-23T05:15:12.742Z,39.50
2023-11-23T05:17:39.797Z,37.34
2023-11-23T05:20:07.561Z,38.56
2023-11-23T05:22:34.483Z,37.61
2023-11-23T05:25:01.499Z,38.90
2023-11-23T05:27:28.496Z,37.64
2023-11-23T05:29:55.520Z,37.57
2023-11-23T05:32:22.650Z,38.68
2023-11-23T05:34:49.659Z,38.49
2023-11-23T05:37:16.938Z,37.11
2023-11-23T05:39:44.725Z,37.30
2023-11-23T05:42:12.463Z,37.66
2023-11-23T05:44:41.768Z,38.57
2023-11-23T05:47:09.004Z,40.42
2023-11-23T05:49:35.978Z,44.28
2023-11-23T05:52:03.069Z,46.74
2023-11-23T05:54:30.020Z,48.74
2023-11-23T05:56:56.934Z,51.82
2023-11-23T05:59:23.881Z,47.91
2023-11-23T06:01:51.828Z,44.27
2023-11-23T06:04:19.036Z,44.65
2023-11-23T06:06:46.174Z,42.38
2023-11-23T06:09:13.229Z,40.26
2023-11-23T06:11:40.274Z,40.59
2023-11-23T06:14:07.336Z,41.23
2023-11-23T06:16:35.111Z,39.50
2023-11-23T06:19:04.074Z,41.77
2023-11-23T06:21:32.542Z,38.98
2023-11-23T06:24:00.746Z,39.17
2023-11-23T06:26:28.828Z,39.79
2023-11-23T06:28:55.785Z,39.29
2023-11-23T06:31:22.819Z,40.18
2023-11-23T06:33:49.984Z,39.01
2023-11-23T06:36:17.786Z,40.21
2023-11-23T06:38:44.978Z,37.97
2023-11-23T06:41:22.980Z,36.68
2023-11-23T06:43:51.746Z,37.16
2023-11-23T06:46:20.794Z,37.97
2023-11-23T06:48:48.059Z,38.61
2023-11-23T06:51:15.263Z,38.35
2023-11-23T06:53:46.473Z,39.11
2023-11-23T06:56:18.004Z,39.02
2023-11-23T06:58:49.401Z,37.82
2023-11-23T07:01:17.286Z,38.64
2023-11-23T07:03:45.697Z,38.85
2023-11-23T07:06:12.920Z,37.43
2023-11-23T07:08:41.787Z,38.45
2023-11-23T07:11:09.325Z,38.57
2023-11-23T07:13:37.107Z,38.33
2023-11-23T07:16:06.244Z,38.53
2023-11-23T07:18:33.519Z,38.25
2023-11-23T07:21:00.831Z,39.14
2023-11-23T07:23:27.967Z,39.85
2023-11-23T07:25:54.979Z,39.57
2023-11-23T07:28:28.774Z,40.31
2023-11-23T07:30:57.887Z,38.70
2023-11-23T07:33:31.066Z,37.35
2023-11-23T07:35:58.132Z,37.07
2023-11-23T07:38:25.367Z,38.83
2023-11-23T07:40:52.345Z,38.54
2023-11-23T07:43:19.533Z,37.87
2023-11-23T07:45:46.437Z,39.18
2023-11-23T07:48:15.590Z,39.60
2023-11-23T07:50:44.621Z,40.37
2023-11-23T07:53:11.892Z,38.87
2023-11-23T07:55:38.942Z,38.34
2023-11-23T07:58:06.130Z,39.03
2023-11-23T08:00:33.319Z,37.50
2023-11-23T08:03:00.836Z,37.51
2023-11-23T08:05:28.097Z,38.77
2023-11-23T08:07:55.164Z,39.32
2023-11-23T08:10:22.093Z,39.54
2023-11-23T08:12:49.187Z,39.50
2023-11-23T08:15:16.646Z,37.89
2023-11-23T08:20:15.360Z,42.35
2023-11-23T08:22:42.463Z,40.68
2023-11-23T08:25:10.334Z,38.73
2023-11-23T08:27:39.250Z,39.22
2023-11-23T08:30:07.795Z,39.88
2023-11-23T08:32:34.827Z,39.95
2023-11-23T08:35:02.763Z,39.26
2023-11-23T08:37:29.862Z,40.67
2023-11-23T08:39:57.096Z,39.92
2023-11-23T08:42:24.284Z,40.05
2023-11-23T08:44:51.518Z,40.50
2023-11-23T08:47:18.673Z,41.23
2023-11-23T08:49:45.697Z,40.32
2023-11-23T08:52:12.877Z,39.74
2023-11-23T08:54:39.802Z,39.44
2023-11-23T08:57:10.530Z,38.28
2023-11-23T08:59:38.935Z,38.30
2023-11-23T09:02:17.259Z,39.22
2023-11-23T09:04:48.050Z,40.23
2023-11-23T09:07:15.100Z,39.37
2023-11-23T09:09:42.090Z,38.70
2023-11-23T09:12:09.274Z,39.55
2023-11-23T09:14:46.554Z,38.86
2023-11-23T09:17:17.850Z,38.12
2023-11-23T09:19:46.647Z,39.90
2023-11-23T09:22:14.700Z,40.98
2023-11-23T09:24:41.674Z,40.98
2023-11-23T09:27:09.208Z,40.43
2023-11-23T09:29:36.299Z,39.54
2023-11-23T09:32:04.665Z,39.74
2023-11-23T09:34:31.767Z,39.61
2023-11-23T09:36:58.850Z,38.41
2023-11-23T09:39:25.822Z,37.48
2023-11-23T09:41:55.259Z,36.14
2023-11-23T09:44:23.658Z,35.68
2023-11-23T09:46:54.343Z,35.52
2023-11-23T09:49:22.596Z,35.35
2023-11-23T09:51:57.154Z,34.45
2023-11-23T09:54:28.060Z,35.36
2023-11-23T09:56:56.454Z,34.47
2023-11-23T09:59:25.359Z,34.44
2023-11-23T10:01:56.268Z,34.29
2023-11-23T10:04:23.478Z,34.66
2023-11-23T10:06:51.526Z,34.43
2023-11-23T10:09:19.291Z,33.43
2023-11-23T10:11:48.436Z,34.66
2023-11-23T10:14:17.313Z,35.47
2023-11-23T10:16:44.596Z,34.76
2023-11-23T10:19:22.434Z,35.27
2023-11-23T10:21:50.305Z,33.78
2023-11-23T10:24:18.089Z,33.87
2023-11-23T10:26:45.191Z,35.18
2023-11-23T10:29:13.078Z,36.52
2023-11-23T10:31:40.306Z,35.78
2023-11-23T10:34:09.454Z,36.67
2023-11-23T10:36:44.913Z,36.21
2023-11-23T10:39:17.670Z,36.31
2023-11-23T10:41:47.844Z,36.07
2023-11-23T10:44:16.726Z,34.98
2023-11-23T10:46:45.679Z,34.27
2023-11-23T10:49:15.603Z,34.42
2023-11-23T10:51:45.241Z,33.24
2023-11-23T10:54:12.306Z,32.70
2023-11-23T10:56:44.863Z,33.80
2023-11-23T10:59:22.163Z,33.33
2023-11-23T11:01:57.595Z,31.59
2023-11-23T11:04:24.788Z,31.86
2023-11-23T11:06:56.500Z,31.91
2023-11-23T11:09:30.404Z,32.71
2023-11-23T11:12:02.204Z,33.08
2023-11-23T11:14:37.662Z,32.92
2023-11-23T11:17:07.569Z,31.48
2023-11-23T11:19:47.037Z,31.07
2023-11-23T11:22:15.373Z,31.11
2023-11-23T11:24:46.619Z,31.13
2023-11-23T11:27:14.354Z,31.86
2023-11-23T11:29:52.910Z,31.37
2023-11-23T11:32:22.957Z,31.08
2023-11-23T11:35:02.350Z,32.34
2023-11-23T11:37:34.790Z,31.04
2023-11-23T11:40:02.154Z,31.12
2023-11-23T11:42:31.562Z,31.33
2023-11-23T11:44:59.427Z,31.70
2023-11-23T11:47:27.588Z,32.10
2023-11-23T11:49:57.080Z,32.57
2023-11-23T11:52:24.089Z,32.86
2023-11-23T11:54:52.305Z,32.16
2023-11-23T11:57:19.927Z,32.24
2023-11-23T11:59:48.117Z,30.31
2023-11-23T12:02:16.035Z,30.70
2023-11-23T12:04:43.311Z,30.57
2023-11-23T12:07:15.897Z,30.14
2023-11-23T12:09:46.829Z,31.08
2023-11-23T12:12:14.780Z,30.67
2023-11-23T12:14:42.101Z,31.61
2023-11-23T12:17:14.556Z,30.83
2023-11-23T12:21:01.497Z,27.95
2023-11-23T12:23:30.295Z,28.46
2023-11-23T12:25:57.350Z,27.64
2023-11-23T12:28:24.663Z,26.91
2023-11-23T12:30:51.829Z,27.31
2023-11-23T12:33:19.261Z,27.27
2023-11-23T12:35:46.475Z,26.79
2023-11-23T12:38:13.481Z,27.25
2023-11-23T12:40:40.592Z,25.74
2023-11-23T12:43:07.609Z,25.07
2023-11-23T12:45:37.423Z,24.54
2023-11-23T12:48:07.799Z,23.90
2023-11-23T12:50:34.835Z,24.15
2023-11-23T12:53:01.778Z,22.91
2023-11-23T12:55:28.667Z,21.73
2023-11-23T12:57:56.106Z,21.57
2023-11-23T13:00:24.022Z,20.81
2023-11-23T13:02:51.087Z,20.24
2023-11-23T13:05:19.167Z,19.61
2023-11-23T13:07:46.186Z,18.95
2023-11-23T13:10:17.257Z,19.33
2023-11-23T13:12:44.468Z,18.54
2023-11-23T13:15:13.669Z,18.49
2023-11-23T13:17:42.411Z,19.00
2023-11-23T13:20:11.017Z,18.64
2023-11-23T13:22:38.332Z,18.06
2023-11-23T13:25:06.981Z,18.79
2023-11-23T13:27:34.055Z,19.06
2023-11-23T13:30:01.146Z,18.65
2023-11-23T13:32:28.405Z,18.04
2023-11-23T13:34:56.383Z,17.55
2023-11-23T13:37:23.616Z,18.01
2023-11-23T13:39:50.647Z,17.59
2023-11-23T13:42:18.962Z,17.33
2023-11-23T13:44:48.805Z,17.23
2023-11-23T13:47:15.908Z,17.16
2023-11-23T13:49:44.291Z,17.47
2023-11-23T13:52:11.614Z,17.67
2023-11-23T13:54:39.113Z,16.98
2023-11-23T13:57:07.425Z,16.99
2023-11-23T13:59:35.682Z,17.12
2023-11-23T14:02:04.164Z,16.35
2023-11-23T14:04:32.855Z,15.72
2023-11-23T14:07:00.403Z,15.66
2023-11-23T14:09:29.942Z,15.53
2023-11-23T14:11:57.087Z,15.32
2023-11-23T14:14:23.980Z,15.60
2023-11-23T14:16:50.883Z,15.54
2023-11-23T14:19:18.558Z,15.21
2023-11-23T14:21:47.973Z,15.60
2023-11-23T14:24:16.694Z,15.55
2023-11-23T14:26:43.955Z,14.76
2023-11-23T14:29:12.566Z,14.96
2023-11-23T14:31:39.605Z,15.32
2023-11-23T14:34:07.267Z,15.09
2023-11-23T14:36:34.378Z,15.16
2023-11-23T14:39:01.883Z,14.91
2023-11-23T14:41:28.917Z,15.57
2023-11-23T14:43:56.024Z,15.38
2023-11-23T14:46:23.120Z,15.90
2023-11-23T14:48:50.158Z,15.79
2023-11-23T14:51:17.639Z,15.61
2023-11-23T14:53:44.631Z,15.43
2023-11-23T14:56:11.525Z,16.12
2023-11-23T14:58:38.681Z,16.42
2023-11-23T15:01:05.716Z,15.99
2023-11-23T15:03:33.023Z,16.51
2023-11-23T15:06:00.815Z,17.33
2023-11-23T15:08:27.729Z,17.23
2023-11-23T15:10:55.246Z,17.28
2023-11-23T15:13:26.437Z,17.19
2023-11-23T15:16:00.256Z,17.90
2023-11-23T15:18:27.309Z,16.50
2023-11-23T15:20:54.271Z,15.06
2023-11-23T15:23:21.680Z,15.14
2023-11-23T15:25:49.116Z,14.30
2023-11-23T15:28:16.210Z,14.08
2023-11-23T15:30:43.404Z,13.89
2023-11-23T15:33:11.635Z,13.79
2023-11-23T15:35:42.546Z,13.75
2023-11-23T15:38:09.519Z,14.39
2023-11-23T15:40:37.286Z,14.05
2023-11-23T15:43:04.428Z,14.12
2023-11-23T15:45:31.948Z,13.76
2023-11-23T15:47:58.935Z,14.28
2023-11-23T15:50:29.381Z,14.50
2023-11-23T15:52:58.528Z,14.99
2023-11-23T15:55:25.581Z,14.83
2023-11-23T15:57:53.178Z,14.72
2023-11-23T16:00:25.580Z,14.86
2023-11-23T16:02:55.042Z,14.86
2023-11-23T16:05:28.863Z,15.38
2023-11-23T16:07:56.688Z,16.50
2023-11-23T16:10:23.852Z,16.22
2023-11-23T16:12:50.848Z,17.40
2023-11-23T16:15:18.069Z,18.18
2023-11-23T16:17:45.627Z,19.07
2023-11-23T16:20:16.692Z,19.75
2023-11-23T16:22:45.872Z,20.10
2023-11-23T16:25:12.925Z,19.77
2023-11-23T16:27:40.578Z,18.92
2023-11-23T16:30:13.403Z,19.19
2023-11-23T16:32:41.720Z,19.12
2023-11-23T16:35:12.528Z,18.77
2023-11-23T16:37:39.781Z,18.04
2023-11-23T16:40:12.131Z,18.37
2023-11-23T16:42:43.256Z,18.00
2023-11-23T16:45:12.025Z,18.49
2023-11-23T16:47:40.327Z,17.62
2023-11-23T16:50:11.440Z,18.33
2023-11-23T16:52:38.470Z,17.55
2023-11-23T16:55:07.434Z,17.54
2023-11-23T16:57:34.650Z,16.91
2023-11-23T17:00:01.917Z,17.08
2023-11-23T17:02:28.994Z,16.79
2023-11-23T17:04:57.104Z,16.51
2023-11-23T17:07:25.483Z,16.16
2023-11-23T17:09:54.245Z,16.23
2023-11-23T17:12:21.203Z,15.64
2023-11-23T17:14:48.157Z,15.58
2023-11-23T17:17:15.037Z,14.97
2023-11-23T17:19:43.863Z,14.08
2023-11-23T17:22:10.832Z,14.23
2023-11-23T17:24:37.867Z,13.96
2023-11-23T17:27:05.611Z,13.25
2023-11-23T17:29:32.535Z,13.62
2023-11-23T17:31:59.469Z,13.41
2023-11-23T17:34:27.465Z,13.58
2023-11-23T17:36:54.470Z,13.17
2023-11-23T17:39:23.646Z,13.84
2023-11-23T17:41:52.062Z,13.62
2023-11-23T17:44:19.815Z,14.49
2023-11-23T17:46:46.905Z,14.48
2023-11-23T17:49:17.336Z,14.68
2023-11-23T17:51:44.864Z,14.26
2023-11-23T17:54:12.953Z,15.05
2023-11-23T17:56:41.452Z,15.48
2023-11-23T17:59:25.208Z,15.72
2023-11-23T18:01:59.067Z,15.78
2023-11-23T18:04:27.642Z,15.84
2023-11-23T18:06:55.653Z,15.60
2023-11-23T18:09:22.814Z,16.23
2023-11-23T18:11:50.115Z,16.18
2023-11-23T18:14:17.434Z,16.85
2023-11-23T18:16:45.287Z,17.69
2023-11-23T18:19:12.332Z,18.53
2023-11-23T18:21:39.926Z,18.87
2023-11-23T18:24:06.963Z,19.39
2023-11-23T18:26:33.829Z,19.67
2023-11-23T18:29:00.761Z,19.81
2023-11-23T18:31:28.119Z,21.38
2023-11-23T18:33:55.103Z,21.55
2023-11-23T18:36:23.136Z,20.76
2023-11-23T18:38:50.059Z,21.48
2023-11-23T18:41:17.447Z,22.02
2023-11-23T18:43:44.424Z,23.23
2023-11-23T18:46:13.620Z,22.32
2023-11-23T18:48:40.676Z,20.63
2023-11-23T18:51:08.821Z,20.39
2023-11-23T18:53:35.749Z,20.28
2023-11-23T18:56:04.819Z,20.56
2023-11-23T18:58:31.738Z,22.19
2023-11-23T19:01:00.723Z,21.89
2023-11-23T19:03:28.199Z,21.48
2023-11-23T19:05:59.706Z,21.84
2023-11-23T19:08:26.748Z,22.06
2023-11-23T19:10:53.876Z,21.11
2023-11-23T19:13:21.415Z,20.56
2023-11-23T19:15:49.668Z,21.15
2023-11-23T19:18:17.894Z,21.20
2023-11-23T19:20:45.231Z,21.84
2023-11-23T19:23:13.410Z,22.19
2023-11-23T19:25:40.740Z,23.19
2023-11-23T19:28:08.258Z,23.30
2023-11-23T19:30:35.710Z,22.61
2023-11-23T19:33:06.607Z,22.46
2023-11-23T19:35:35.724Z,22.02
2023-11-23T19:38:05.363Z,22.81
2023-11-23T19:40:32.939Z,23.29
2023-11-23T19:43:00.741Z,23.02
2023-11-23T19:45:28.611Z,22.81
2023-11-23T19:47:56.232Z,22.94
2023-11-23T19:50:23.650Z,23.11
2023-11-23T19:52:55.303Z,22.55
2023-11-23T19:55:22.183Z,22.70
2023-11-23T19:57:49.171Z,20.40
2023-11-23T20:00:17.305Z,19.40
2023-11-23T20:02:45.062Z,19.55
2023-11-23T20:05:12.259Z,18.77
2023-11-23T20:07:39.252Z,18.53
2023-11-23T20:10:08.146Z,18.28
2023-11-23T20:12:35.269Z,18.28
2023-11-23T20:15:03.015Z,18.16
2023-11-23T20:17:29.958Z,17.65
2023-11-23T20:19:56.927Z,18.48
2023-11-23T20:22:23.893Z,18.78
2023-11-23T20:24:50.882Z,19.11
2023-11-23T20:27:17.967Z,18.58
2023-11-23T20:29:45.111Z,18.74
2023-11-23T20:32:12.228Z,19.00
2023-11-23T20:34:39.828Z,18.93
2023-11-23T20:37:06.769Z,19.18
2023-11-23T20:39:34.191Z,19.20
2023-11-23T20:42:01.179Z,18.05
2023-11-23T20:44:28.129Z,18.30
2023-11-23T20:46:57.492Z,17.44
2023-11-23T20:49:26.394Z,17.22
2023-11-23T20:51:54.087Z,17.63
2023-11-23T20:54:21.180Z,16.48
2023-11-23T20:56:48.709Z,16.17
2023-11-23T20:59:15.931Z,15.04
2023-11-23T21:01:43.329Z,15.26
2023-11-23T21:04:14.716Z,15.20
2023-11-23T21:06:53.130Z,13.97
2023-11-23T21:09:26.370Z,13.43
2023-11-23T21:11:56.292Z,12.52
2023-11-23T21:14:24.836Z,12.17
2023-11-23T21:16:51.918Z,11.77
2023-11-23T21:19:19.001Z,11.97
2023-11-23T21:21:46.131Z,9.89
2023-11-23T21:24:14.482Z,7.04
2023-11-23T21:26:42.165Z,4.37
2023-11-23T21:29:10.861Z,2.65
2023-11-23T21:31:38.009Z,2.34
2023-11-23T21:34:05.210Z,2.85
2023-11-23T21:36:36.050Z,3.13
2023-11-23T21:39:03.097Z,3.79
2023-11-23T21:41:30.308Z,3.45
2023-11-23T21:43:57.231Z,3.31
2023-11-23T21:46:25.991Z,3.97
2023-11-23T21:48:53.964Z,4.15
2023-11-23T21:51:29.208Z,4.33
2023-11-23T21:53:58.166Z,4.58
2023-11-23T21:56:25.235Z,4.04
2023-11-23T21:58:52.225Z,5.44
2023-11-23T22:01:19.268Z,5.17
2023-11-23T22:03:50.790Z,4.97
2023-11-23T22:06:19.002Z,5.44
2023-11-23T22:08:45.901Z,5.74
2023-11-23T22:11:13.965Z,5.17
2023-11-23T22:13:41.540Z,5.32
2023-11-23T22:16:08.456Z,5.33
2023-11-23T22:18:36.280Z,5.15
2023-11-23T22:21:05.793Z,5.59
2023-11-23T22:23:34.082Z,6.22
2023-11-23T22:26:02.177Z,6.03
2023-11-23T22:28:29.619Z,6.65
2023-11-23T22:30:57.197Z,7.02
2023-11-23T22:33:25.683Z,6.71
2023-11-23T22:35:52.818Z,6.58
2023-11-23T22:38:19.983Z,6.74
2023-11-23T22:40:47.263Z,6.80
2023-11-23T22:43:14.893Z,6.39
2023-11-23T22:45:42.029Z,6.79
2023-11-23T22:48:08.960Z,6.21
2023-11-23T22:50:35.880Z,6.22
2023-11-23T22:53:02.758Z,7.05
2023-11-23T22:55:29.698Z,6.45
2023-11-23T22:57:56.801Z,8.08
2023-11-23T23:00:27.861Z,8.95
2023-11-23T23:02:55.668Z,8.98
2023-11-23T23:05:22.698Z,9.31
2023-11-23T23:07:50.259Z,9.53
2023-11-23T23:10:17.825Z,9.25
2023-11-23T23:12:44.770Z,8.73
2023-11-23T23:15:11.671Z,8.00
2023-11-23T23:17:38.582Z,7.75
2023-11-23T23:20:07.445Z,8.73
2023-11-23T23:22:34.604Z,9.98
2023-11-23T23:25:03.403Z,9.35
2023-11-23T23:27:30.319Z,9.46
2023-11-23T23:29:57.344Z,11.21
2023-11-23T23:32:25.017Z,8.94
2023-11-23T23:34:52.554Z,8.13
2023-11-23T23:37:19.476Z,7.94
2023-11-23T23:39:46.372Z,8.72
2023-11-23T23:42:13.395Z,8.44
2023-11-23T23:44:40.310Z,8.20
2023-11-23T23:47:09.000Z,7.51
2023-11-23T23:49:37.563Z,7.40
2023-11-23T23:52:05.002Z,7.17
2023-11-23T23:54:31.917Z,6.53
2023-11-23T23:56:59.058Z,5.72
2023-11-23T23:59:26.264Z,5.83
